Addyston, OH (45001)

12:03 PM EDT on September 03, 2015 (GMT -0400)
Miami Township | | Change Station
CLOSE
Current Station
Personal Weather Station
Location: Cincinnati, OH
Elevation: 817 ft
Nearby Weather Stations

Elev 817 ft 39.14 °N, 84.70 °W | Updated 0 second ago

Clear
Clear
90.0 °F
Feels Like 104 °F
N
0.0
Wind Variable Wind from SE
Gusts 1.0 mph

Today
High -- | Low -- °F
--% Chance of Precip.
Yesterday
High -- | Low -- °F
Precip. -- in
7:09 AM 8:06 PM
Waning Gibbous, 69% visible
Pressure 30.01 in
Visibility 9.0 miles
Clouds Few 4000 ft
Heat Index 104 °F
Dew Point 78 °F
Humidity 67%
Rainfall 0.00 in
Snow Depth Not available.
UV 0.9 out of 12
Pollen 10.50 out of 12
Air Quality Not available.
Flu Activity Not available.
METAR KCVG 031552Z 28005KT 9SM FEW040 30/20 A3004 RMK AO2 SLP161 T03000200
Pressure 30.01 in
Visibility 9.0 miles
Clouds Few 4000 ft
Heat Index 104 °F
Dew Point 78 °F
Humidity 67%
Rainfall 0.00 in
Snow Depth Not available.
UV 0.9 out of 12
Pollen 10.50 out of 12
Air Quality Not available.
Flu Activity Not available.
METAR KCVG 031552Z 28005KT 9SM FEW040 30/20 A3004 RMK AO2 SLP161 T03000200

10-Day Weather Forecast

×

Almanac

Astronomy

Sep. 03, 2015 Rise Set
Actual Time
Civil Twilight
Nautical Twilight
Astronomical Twilight
Moon
Length of Visible Light
Length of Day
Tomorrow will be .
, % of the Moon is Illuminated

Today's Extremes

State Highs State Lows

Community

WunderPhotos

Upload Photos

1,851,985 photos uploaded!

WunderBlogs® & News

Nearby

Air Quality

  Air Quality AQ Index Pollutant
Not available.

Snow Depth

Station Depth Elevation

Earthquake Activity

City Distance Mag. Time & Date
Minimum magnitude displayed is 2.5.

Coastal Water Temperatures

Place Temperature

Stations

Nearby Weather Stations

Station Location Temp. Windchill Dew Point Humidity Wind Precip. Elev Updated Type